Time;durP1;ratioP1;P1;durP2;ratioP2;P2;SDS_P1;SDS_P2;PMS_P1;PMS_P2;Temp;Humidity;BMP_temperature;BMP_pressure;BME280_temperature;BME280_humidity;BME280_pressure;Samples;Min_cycle;Max_cycle;Signal;HPM_P1;HPM_P2
2024/02/14 00:00:44;;;;;;;40.08;18.17;;;;;;;;;;5112625;28;20023;-63
2024/02/14 00:03:09;;;;;;;41.22;19.50;;;;;;;;;;5114118;28;20051;-62
2024/02/14 00:05:35;;;;;;;44.45;19.50;;;;;;;;;;5095947;28;20085;-62
2024/02/14 00:08:00;;;;;;;44.58;19.98;;;;;;;;;;5114026;28;20023;-63
2024/02/14 00:10:25;;;;;;;47.10;21.80;;;;;;;;;;5113854;28;20044;-62
2024/02/14 00:12:51;;;;;;;39.67;18.80;;;;;;;;;;5113735;28;20385;-63
2024/02/14 00:15:17;;;;;;;45.85;20.67;;;;;;;;;;5113272;28;20039;-62
2024/02/14 00:17:43;;;;;;;45.45;20.77;;;;;;;;;;5113335;28;20024;-62
2024/02/14 00:20:12;;;;;;;47.72;20.27;;;;;;;;;;5113222;28;20031;-62
2024/02/14 00:22:38;;;;;;;54.08;23.15;;;;;;;;;;5113258;28;20035;-63
2024/02/14 00:25:03;;;;;;;64.45;27.00;;;;;;;;;;5113180;28;20031;-62
2024/02/14 00:27:29;;;;;;;63.03;27.48;;;;;;;;;;5113455;28;20036;-62
2024/02/14 00:29:54;;;;;;;53.65;24.83;;;;;;;;;;5115506;28;20072;-62
2024/02/14 00:32:19;;;;;;;46.50;21.75;;;;;;;;;;5115391;28;20102;-63
2024/02/14 00:34:45;;;;;;;38.95;18.80;;;;;;;;;;5115045;28;20036;-62
2024/02/14 00:37:10;;;;;;;46.88;19.42;;;;;;;;;;5115600;28;20076;-62
2024/02/14 00:39:36;;;;;;;43.78;19.85;;;;;;;;;;5115046;28;20020;-62
2024/02/14 00:42:02;;;;;;;42.78;21.63;;;;;;;;;;5115266;28;20026;-63
2024/02/14 00:44:27;;;;;;;46.83;21.83;;;;;;;;;;5115188;28;20469;-62
2024/02/14 00:47:02;;;;;;;50.58;23.92;;;;;;;;;;5115478;28;20027;-62
2024/02/14 00:49:28;;;;;;;51.10;23.63;;;;;;;;;;5114835;28;20034;-62
2024/02/14 00:51:53;;;;;;;53.25;24.23;;;;;;;;;;5114758;28;20098;-62
2024/02/14 00:54:19;;;;;;;48.67;22.70;;;;;;;;;;5096372;28;20092;-62
2024/02/14 00:56:44;;;;;;;42.78;22.13;;;;;;;;;;5114724;28;20020;-62
2024/02/14 00:59:10;;;;;;;44.72;22.38;;;;;;;;;;5114688;28;20427;-62
2024/02/14 01:01:35;;;;;;;42.13;22.15;;;;;;;;;;5114626;28;20015;-62
2024/02/14 01:04:00;;;;;;;44.05;23.50;;;;;;;;;;5114555;28;20108;-63
2024/02/14 01:06:26;;;;;;;42.40;21.25;;;;;;;;;;5114261;28;20093;-63
2024/02/14 01:08:51;;;;;;;39.25;20.70;;;;;;;;;;5096229;28;20027;-63
2024/02/14 01:11:17;;;;;;;45.25;23.38;;;;;;;;;;5114261;28;20485;-63
2024/02/14 01:13:42;;;;;;;38.60;21.65;;;;;;;;;;5096077;28;20024;-63
2024/02/14 01:16:08;;;;;;;38.35;20.23;;;;;;;;;;5114407;28;20038;-63
2024/02/14 01:18:33;;;;;;;43.45;22.25;;;;;;;;;;5114354;28;20557;-63
2024/02/14 01:20:58;;;;;;;42.20;22.42;;;;;;;;;;5096057;28;20027;-63
2024/02/14 01:23:24;;;;;;;43.03;22.90;;;;;;;;;;5114308;28;20111;-62
2024/02/14 01:25:50;;;;;;;37.17;19.23;;;;;;;;;;5114293;28;20093;-62
2024/02/14 01:28:15;;;;;;;33.55;17.15;;;;;;;;;;5114508;28;20027;-62
2024/02/14 01:30:41;;;;;;;31.30;16.80;;;;;;;;;;5114474;28;20468;-62
2024/02/14 01:33:06;;;;;;;31.08;16.15;;;;;;;;;;5114168;28;20031;-62
2024/02/14 01:35:31;;;;;;;30.13;16.08;;;;;;;;;;5114010;28;20470;-62
2024/02/14 01:37:57;;;;;;;30.10;15.73;;;;;;;;;;5114403;28;20485;-62
2024/02/14 01:40:22;;;;;;;30.02;15.60;;;;;;;;;;5114409;28;20030;-62
2024/02/14 01:42:48;;;;;;;26.52;14.75;;;;;;;;;;5114373;28;20114;-62
2024/02/14 01:45:13;;;;;;;30.90;16.30;;;;;;;;;;5114330;28;20047;-62
2024/02/14 01:47:41;;;;;;;32.10;16.85;;;;;;;;;;5095906;28;20123;-62
2024/02/14 01:50:11;;;;;;;28.92;15.80;;;;;;;;;;5114583;28;20050;-67
2024/02/14 01:52:38;;;;;;;32.67;17.33;;;;;;;;;;5113922;28;20036;-62
2024/02/14 01:55:04;;;;;;;31.10;16.92;;;;;;;;;;5096060;28;20100;-63
2024/02/14 01:57:31;;;;;;;34.13;16.80;;;;;;;;;;5095130;28;20053;-62
2024/02/14 01:59:58;;;;;;;31.15;16.02;;;;;;;;;;5111784;28;20028;-62
2024/02/14 02:02:26;;;;;;;30.05;16.77;;;;;;;;;;5111770;28;20110;-62
2024/02/14 02:04:51;;;;;;;31.27;16.95;;;;;;;;;;5111787;28;20127;-63
2024/02/14 02:07:19;;;;;;;32.22;17.60;;;;;;;;;;5111671;28;20118;-63
2024/02/14 02:09:44;;;;;;;31.52;16.80;;;;;;;;;;5111858;28;20437;-63
2024/02/14 02:12:09;;;;;;;30.92;16.92;;;;;;;;;;5076451;28;20065;-63
2024/02/14 02:14:35;;;;;;;33.15;16.20;;;;;;;;;;5111598;28;20031;-63
2024/02/14 02:17:00;;;;;;;33.38;16.92;;;;;;;;;;5111598;28;20032;-63
2024/02/14 02:19:25;;;;;;;28.02;15.68;;;;;;;;;;5114405;28;20024;-68
2024/02/14 02:21:52;;;;;;;31.92;16.75;;;;;;;;;;5115995;28;20024;-62
2024/02/14 02:24:17;;;;;;;30.48;16.33;;;;;;;;;;5097994;28;20532;-62
2024/02/14 02:26:43;;;;;;;31.88;17.13;;;;;;;;;;5116128;28;20168;-62
2024/02/14 02:29:09;;;;;;;31.23;16.55;;;;;;;;;;5116436;28;20151;-62
2024/02/14 02:31:35;;;;;;;27.55;16.05;;;;;;;;;;5117507;28;20028;-62
2024/02/14 02:34:00;;;;;;;27.98;15.70;;;;;;;;;;5117979;28;20032;-62
2024/02/14 02:36:29;;;;;;;32.10;16.63;;;;;;;;;;5099182;28;20100;-62
2024/02/14 02:38:55;;;;;;;30.25;16.25;;;;;;;;;;5117689;28;20028;-62
2024/02/14 02:41:21;;;;;;;30.77;16.25;;;;;;;;;;5117613;28;20023;-62
2024/02/14 02:43:50;;;;;;;30.25;16.58;;;;;;;;;;5117303;28;20031;-63
2024/02/14 02:46:15;;;;;;;30.65;16.17;;;;;;;;;;5117285;28;20095;-63
2024/02/14 02:48:41;;;;;;;32.08;17.35;;;;;;;;;;5117755;28;20059;-62
2024/02/14 02:51:06;;;;;;;30.73;17.25;;;;;;;;;;5117746;28;20031;-62
2024/02/14 02:53:32;;;;;;;32.30;16.17;;;;;;;;;;5117068;28;20024;-62
2024/02/14 02:55:57;;;;;;;32.70;17.83;;;;;;;;;;5098764;28;20059;-62
2024/02/14 02:58:23;;;;;;;32.35;17.30;;;;;;;;;;5117553;28;20103;-62
2024/02/14 03:00:51;;;;;;;33.40;17.10;;;;;;;;;;5116970;28;20019;-62
2024/02/14 03:03:16;;;;;;;33.03;17.67;;;;;;;;;;5117210;28;20028;-62
2024/02/14 03:05:44;;;;;;;35.63;17.02;;;;;;;;;;5117132;28;20041;-62
2024/02/14 03:08:13;;;;;;;31.40;16.58;;;;;;;;;;5116816;28;20099;-63
2024/02/14 03:10:40;;;;;;;29.88;17.10;;;;;;;;;;5117006;28;20093;-63
2024/02/14 03:13:07;;;;;;;30.10;16.48;;;;;;;;;;5116997;28;20059;-63
2024/02/14 03:15:33;;;;;;;32.58;16.70;;;;;;;;;;5116592;28;20054;-62
2024/02/14 03:17:58;;;;;;;26.42;15.15;;;;;;;;;;5116616;28;20023;-62
2024/02/14 03:20:24;;;;;;;24.83;14.77;;;;;;;;;;5098968;28;20028;-62
2024/02/14 03:22:49;;;;;;;26.75;14.45;;;;;;;;;;5116816;28;20032;-62
2024/02/14 03:25:18;;;;;;;26.48;14.50;;;;;;;;;;5116826;28;20042;-62
2024/02/14 03:27:49;;;;;;;26.45;14.57;;;;;;;;;;5116980;28;20036;-62
2024/02/14 03:30:16;;;;;;;24.67;13.73;;;;;;;;;;5116189;28;20035;-62
2024/02/14 03:32:41;;;;;;;23.83;14.07;;;;;;;;;;5116653;28;20035;-62
2024/02/14 03:35:07;;;;;;;27.15;14.40;;;;;;;;;;5116228;28;20032;-62
2024/02/14 03:37:32;;;;;;;27.85;14.43;;;;;;;;;;5116569;28;20051;-62
2024/02/14 03:39:58;;;;;;;28.25;14.90;;;;;;;;;;5116498;28;20024;-62
2024/02/14 03:42:23;;;;;;;24.88;14.75;;;;;;;;;;5116756;28;20450;-62
2024/02/14 03:44:49;;;;;;;28.73;16.45;;;;;;;;;;5116672;28;20036;-62
2024/02/14 03:47:14;;;;;;;30.52;16.65;;;;;;;;;;5116128;28;20536;-62
2024/02/14 03:49:40;;;;;;;31.38;17.13;;;;;;;;;;5116597;28;20035;-62
2024/02/14 03:52:09;;;;;;;29.42;16.30;;;;;;;;;;5116300;28;20036;-62
2024/02/14 03:54:38;;;;;;;28.42;15.85;;;;;;;;;;5116173;28;20111;-62
2024/02/14 03:57:05;;;;;;;26.98;14.75;;;;;;;;;;5116146;28;20023;-62
2024/02/14 03:59:30;;;;;;;21.65;13.18;;;;;;;;;;5116141;28;20061;-63
2024/02/14 04:01:58;;;;;;;20.70;13.27;;;;;;;;;;5097564;28;20031;-64
2024/02/14 04:04:23;;;;;;;27.45;14.98;;;;;;;;;;5116015;28;20110;-63
2024/02/14 04:06:48;;;;;;;34.78;19.75;;;;;;;;;;5115962;28;20102;-63
2024/02/14 04:09:14;;;;;;;36.63;18.95;;;;;;;;;;5115648;28;20074;-63
2024/02/14 04:11:39;;;;;;;43.42;19.95;;;;;;;;;;5115472;28;20043;-63
2024/02/14 04:14:05;;;;;;;37.15;18.30;;;;;;;;;;5115775;28;20036;-63
2024/02/14 04:16:30;;;;;;;36.90;19.13;;;;;;;;;;5097364;28;20567;-64
2024/02/14 04:18:56;;;;;;;31.23;17.63;;;;;;;;;;5115470;28;20035;-67
2024/02/14 04:21:22;;;;;;;27.42;16.52;;;;;;;;;;5115678;28;20019;-65
2024/02/14 04:23:47;;;;;;;27.77;15.73;;;;;;;;;;5115334;28;20471;-65
2024/02/14 04:26:22;;;;;;;50.42;26.88;;;;;;;;;;5115334;28;20027;-65
2024/02/14 04:28:47;;;;;;;69.72;38.33;;;;;;;;;;5115534;28;20114;-65
2024/02/14 04:31:13;;;;;;;78.20;41.33;;;;;;;;;;5115781;28;20058;-64
2024/02/14 04:33:38;;;;;;;68.80;36.30;;;;;;;;;;5115099;28;20111;-64
2024/02/14 04:36:05;;;;;;;50.88;28.75;;;;;;;;;;5115428;28;20103;-64
2024/02/14 04:38:31;;;;;;;37.20;21.42;;;;;;;;;;5115321;28;20035;-65
2024/02/14 04:40:56;;;;;;;36.90;20.27;;;;;;;;;;5095927;28;20043;-65
2024/02/14 04:43:22;;;;;;;35.47;19.75;;;;;;;;;;5115268;28;20066;-67
2024/02/14 04:45:47;;;;;;;32.65;19.52;;;;;;;;;;5114946;28;20024;-64
2024/02/14 04:48:13;;;;;;;37.05;20.13;;;;;;;;;;5096743;28;20036;-64
2024/02/14 04:50:38;;;;;;;55.45;25.50;;;;;;;;;;5115116;28;20038;-65
2024/02/14 04:53:04;;;;;;;73.32;28.67;;;;;;;;;;5113986;28;20072;-65
2024/02/14 04:55:29;;;;;;;72.75;28.98;;;;;;;;;;5114544;28;20126;-65
2024/02/14 04:57:54;;;;;;;60.38;25.20;;;;;;;;;;5114980;28;20051;-65
2024/02/14 05:00:20;;;;;;;65.20;25.98;;;;;;;;;;5112611;28;20470;-65
2024/02/14 05:02:46;;;;;;;93.07;31.80;;;;;;;;;;5112542;28;20027;-65
2024/02/14 05:05:11;;;;;;;86.07;31.15;;;;;;;;;;5112743;28;20035;-66
2024/02/14 05:07:37;;;;;;;58.28;23.85;;;;;;;;;;5112846;28;20416;-65
2024/02/14 05:10:02;;;;;;;43.47;20.20;;;;;;;;;;5112733;28;20046;-65
2024/02/14 05:12:28;;;;;;;54.10;22.52;;;;;;;;;;5112785;28;20120;-65
2024/02/14 05:14:53;;;;;;;58.92;25.38;;;;;;;;;;5113743;28;20032;-65
2024/02/14 05:17:18;;;;;;;50.50;25.30;;;;;;;;;;5114633;28;20110;-65
2024/02/14 05:19:44;;;;;;;51.33;24.67;;;;;;;;;;5114374;28;20024;-65
2024/02/14 05:22:09;;;;;;;62.47;27.20;;;;;;;;;;5114297;28;20482;-65
2024/02/14 05:24:37;;;;;;;55.53;25.33;;;;;;;;;;5114323;28;20031;-65
2024/02/14 05:27:03;;;;;;;51.75;24.30;;;;;;;;;;5096459;28;20035;-65
2024/02/14 05:29:28;;;;;;;40.25;24.70;;;;;;;;;;5114513;28;20076;-66
2024/02/14 05:31:55;;;;;;;43.50;25.15;;;;;;;;;;5114237;28;20024;-66
2024/02/14 05:34:20;;;;;;;33.25;18.20;;;;;;;;;;5114061;28;20122;-66
2024/02/14 05:36:45;;;;;;;33.80;18.50;;;;;;;;;;5095914;28;20114;-66
2024/02/14 05:39:11;;;;;;;43.92;19.77;;;;;;;;;;5114090;28;20050;-66
2024/02/14 05:41:37;;;;;;;39.60;20.10;;;;;;;;;;5114123;28;20019;-66
2024/02/14 05:44:02;;;;;;;38.35;20.17;;;;;;;;;;5114086;28;20500;-66
2024/02/14 05:49:16;;;;;;;50.97;31.58;;;;;;;;;;5152460;22;20094;-59
2024/02/14 05:51:41;;;;;;;55.17;34.30;;;;;;;;;;5132185;22;20445;-59
2024/02/14 05:54:07;;;;;;;59.47;37.03;;;;;;;;;;5141791;22;20076;-60
2024/02/14 05:56:36;;;;;;;58.83;36.78;;;;;;;;;;5131232;22;20048;-66
2024/02/14 05:59:02;;;;;;;57.30;37.20;;;;;;;;;;5098391;28;20044;-67
2024/02/14 06:01:28;;;;;;;55.72;37.78;;;;;;;;;;5118125;28;20026;-65
2024/02/14 06:03:54;;;;;;;63.03;40.75;;;;;;;;;;5118685;28;20070;-66
2024/02/14 06:06:19;;;;;;;64.65;41.38;;;;;;;;;;5118052;28;20092;-64
2024/02/14 06:08:44;;;;;;;60.38;38.03;;;;;;;;;;5118242;28;20024;-64
2024/02/14 06:11:10;;;;;;;82.68;53.70;;;;;;;;;;5117932;28;20023;-64
2024/02/14 06:13:35;;;;;;;45.60;27.67;;;;;;;;;;5117864;28;20101;-64
2024/02/14 06:16:01;;;;;;;38.33;24.52;;;;;;;;;;5117872;28;20067;-64
2024/02/14 06:18:26;;;;;;;42.28;28.95;;;;;;;;;;5117811;28;20023;-64
2024/02/14 06:20:52;;;;;;;55.95;40.05;;;;;;;;;;5117755;28;20458;-64
2024/02/14 06:23:17;;;;;;;34.17;21.25;;;;;;;;;;5099484;28;20085;-64
2024/02/14 06:25:42;;;;;;;37.35;23.40;;;;;;;;;;5099644;28;20036;-64
2024/02/14 06:28:09;;;;;;;50.10;32.28;;;;;;;;;;5117782;28;20034;-64
2024/02/14 06:30:35;;;;;;;47.28;33.28;;;;;;;;;;5117705;28;20085;-64
2024/02/14 06:33:00;;;;;;;54.95;36.33;;;;;;;;;;5117473;28;20020;-64
2024/02/14 06:35:26;;;;;;;49.63;33.75;;;;;;;;;;5117409;28;20011;-64
2024/02/14 06:37:51;;;;;;;58.03;33.33;;;;;;;;;;5117774;28;20059;-64
2024/02/14 06:40:17;;;;;;;57.90;32.22;;;;;;;;;;5117385;28;20028;-64
2024/02/14 06:42:43;;;;;;;60.97;31.05;;;;;;;;;;5117664;28;20043;-64
2024/02/14 06:45:08;;;;;;;46.20;26.70;;;;;;;;;;5117574;28;20110;-64
2024/02/14 06:47:33;;;;;;;55.28;31.50;;;;;;;;;;5117486;28;20148;-63
2024/02/14 06:49:59;;;;;;;71.90;37.38;;;;;;;;;;5117235;28;20031;-64
2024/02/14 06:52:24;;;;;;;70.63;36.30;;;;;;;;;;5117162;28;20064;-63
2024/02/14 06:54:50;;;;;;;65.25;32.65;;;;;;;;;;5116990;28;20055;-64
2024/02/14 06:57:16;;;;;;;94.18;49.03;;;;;;;;;;5098743;28;20385;-63
2024/02/14 06:59:42;;;;;;;98.38;50.00;;;;;;;;;;5117104;28;20055;-64
2024/02/14 07:02:08;;;;;;;105.75;53.95;;;;;;;;;;5117019;28;20030;-64
2024/02/14 07:04:33;;;;;;;114.53;59.67;;;;;;;;;;5097585;28;20023;-64
2024/02/14 07:06:58;;;;;;;99.53;53.10;;;;;;;;;;5116847;28;20077;-64
2024/02/14 07:09:25;;;;;;;97.45;47.30;;;;;;;;;;5117398;28;20042;-62
2024/02/14 07:11:50;;;;;;;91.75;43.28;;;;;;;;;;5116785;28;20040;-61
2024/02/14 07:14:16;;;;;;;88.50;41.92;;;;;;;;;;5116641;28;20061;-62
2024/02/14 07:16:41;;;;;;;82.47;42.05;;;;;;;;;;5098465;28;20053;-61
2024/02/14 07:19:06;;;;;;;65.13;33.17;;;;;;;;;;5098369;28;20107;-61
2024/02/14 07:21:33;;;;;;;64.50;32.10;;;;;;;;;;5116537;28;20031;-61
2024/02/14 07:23:58;;;;;;;61.85;34.08;;;;;;;;;;5116496;28;20019;-61
2024/02/14 07:26:23;;;;;;;73.55;43.05;;;;;;;;;;5098211;28;20425;-61
2024/02/14 07:28:49;;;;;;;76.32;46.53;;;;;;;;;;5116472;28;20020;-61
2024/02/14 07:31:14;;;;;;;64.10;37.47;;;;;;;;;;5116441;28;20515;-61
2024/02/14 07:33:40;;;;;;;47.00;27.88;;;;;;;;;;5116853;28;20032;-61
2024/02/14 07:36:05;;;;;;;47.40;28.17;;;;;;;;;;5116601;28;20024;-61
2024/02/14 07:38:30;;;;;;;43.83;25.77;;;;;;;;;;5098083;28;20034;-61
2024/02/14 07:40:56;;;;;;;46.17;25.25;;;;;;;;;;5116531;28;20031;-61
2024/02/14 07:43:21;;;;;;;44.42;25.08;;;;;;;;;;5116278;28;20028;-61
2024/02/14 07:45:48;;;;;;;40.15;23.02;;;;;;;;;;5097985;28;20436;-61
2024/02/14 07:48:13;;;;;;;44.92;22.63;;;;;;;;;;5116101;28;20023;-61
2024/02/14 07:50:38;;;;;;;39.67;21.23;;;;;;;;;;5098197;28;20023;-61
2024/02/14 07:53:04;;;;;;;48.58;26.08;;;;;;;;;;5097762;28;20047;-61
2024/02/14 07:55:29;;;;;;;44.17;25.50;;;;;;;;;;5115908;28;20111;-61
2024/02/14 07:57:54;;;;;;;44.38;25.13;;;;;;;;;;5116041;28;20036;-62
2024/02/14 08:00:22;;;;;;;45.00;25.75;;;;;;;;;;5116428;28;20028;-62
2024/02/14 08:02:51;;;;;;;46.03;25.98;;;;;;;;;;5116081;28;20031;-61
2024/02/14 08:05:16;;;;;;;43.72;24.40;;;;;;;;;;5115707;28;20035;-61
2024/02/14 08:07:41;;;;;;;44.90;25.70;;;;;;;;;;5115989;28;20028;-60
2024/02/14 08:10:07;;;;;;;43.60;24.85;;;;;;;;;;5116202;28;20039;-62
2024/02/14 08:12:33;;;;;;;46.85;26.85;;;;;;;;;;5116152;28;20032;-60
2024/02/14 08:15:03;;;;;;;55.75;31.75;;;;;;;;;;5115653;28;20032;-61
2024/02/14 08:17:29;;;;;;;;;;;;;;;;;;5115895;28;20026;-61
2024/02/14 08:19:55;;;;;;;39.03;22.80;;;;;;;;;;5115496;28;19908;-63
2024/02/14 08:22:20;;;;;;;39.22;22.70;;;;;;;;;;5115960;28;20265;-63
2024/02/14 08:24:46;;;;;;;37.85;21.58;;;;;;;;;;5115377;28;20024;-63
2024/02/14 08:27:11;;;;;;;33.28;21.95;;;;;;;;;;5115489;28;20035;-63
2024/02/14 08:29:37;;;;;;;35.83;21.67;;;;;;;;;;5115510;28;20118;-63
2024/02/14 08:32:03;;;;;;;34.17;20.90;;;;;;;;;;5115218;28;20027;-64
2024/02/14 08:34:29;;;;;;;34.00;21.85;;;;;;;;;;5115110;28;20077;-63
2024/02/14 08:36:54;;;;;;;35.97;21.40;;;;;;;;;;5115429;28;20059;-63
2024/02/14 08:39:19;;;;;;;38.63;22.65;;;;;;;;;;5115347;28;20019;-63
2024/02/14 08:41:46;;;;;;;37.13;22.48;;;;;;;;;;5114988;28;20489;-63
2024/02/14 08:44:15;;;;;;;30.80;19.60;;;;;;;;;;5115228;28;20039;-63
2024/02/14 08:46:42;;;;;;;30.48;18.25;;;;;;;;;;5114900;28;20098;-63
2024/02/14 08:49:08;;;;;;;25.95;16.30;;;;;;;;;;5114887;28;20457;-63
2024/02/14 08:51:36;;;;;;;25.33;17.30;;;;;;;;;;5115420;28;20093;-64
2024/02/14 08:54:04;;;;;;;24.73;15.15;;;;;;;;;;5115054;28;20092;-64
2024/02/14 08:56:33;;;;;;;27.27;15.60;;;;;;;;;;5114782;28;20169;-63
2024/02/14 08:59:02;;;;;;;28.05;16.83;;;;;;;;;;5114599;28;20043;-63
2024/02/14 09:01:28;;;;;;;26.60;17.42;;;;;;;;;;5114961;28;20418;-63
2024/02/14 09:03:53;;;;;;;30.90;18.85;;;;;;;;;;5114642;28;20024;-63
2024/02/14 09:06:21;;;;;;;29.17;16.55;;;;;;;;;;5114761;28;20039;-63
2024/02/14 09:08:46;;;;;;;30.48;18.58;;;;;;;;;;5114530;28;20019;-63
2024/02/14 09:11:12;;;;;;;28.27;17.73;;;;;;;;;;5114504;28;20485;-63
2024/02/14 09:13:37;;;;;;;29.33;17.30;;;;;;;;;;5096596;28;20032;-63
2024/02/14 09:16:03;;;;;;;24.98;15.60;;;;;;;;;;5096354;28;20028;-63
2024/02/14 09:18:30;;;;;;;28.23;16.52;;;;;;;;;;5096209;28;20073;-63
2024/02/14 09:20:56;;;;;;;35.05;19.67;;;;;;;;;;5114387;28;20028;-63
2024/02/14 09:23:22;;;;;;;28.08;17.60;;;;;;;;;;5114897;28;20027;-63
2024/02/14 09:25:48;;;;;;;20.48;12.65;;;;;;;;;;5114599;28;20031;-63
2024/02/14 09:28:15;;;;;;;18.35;12.68;;;;;;;;;;5114393;28;20200;-63
2024/02/14 09:30:40;;;;;;;21.20;12.60;;;;;;;;;;5096047;28;20023;-63
2024/02/14 09:33:06;;;;;;;21.33;13.18;;;;;;;;;;5114210;28;20027;-61
2024/02/14 09:35:31;;;;;;;19.75;11.65;;;;;;;;;;5114418;28;20450;-61
2024/02/14 09:37:56;;;;;;;14.32;9.15;;;;;;;;;;5114158;28;20081;-61
2024/02/14 09:40:23;;;;;;;11.75;7.72;;;;;;;;;;5114470;28;20020;-61
2024/02/14 09:42:59;;;;;;;11.60;7.05;;;;;;;;;;5114121;28;20065;-61
2024/02/14 09:45:25;;;;;;;9.57;6.20;;;;;;;;;;5114307;28;20385;-61
2024/02/14 09:47:51;;;;;;;11.60;6.63;;;;;;;;;;5095826;28;20055;-61
2024/02/14 09:50:17;;;;;;;10.45;7.13;;;;;;;;;;5114063;28;20476;-61
2024/02/14 09:52:43;;;;;;;8.45;5.90;;;;;;;;;;5114343;28;20103;-61
2024/02/14 09:55:09;;;;;;;8.95;6.43;;;;;;;;;;5113881;28;20114;-61
2024/02/14 09:57:35;;;;;;;10.05;6.47;;;;;;;;;;5113793;28;20036;-61
2024/02/14 10:00:02;;;;;;;7.65;5.72;;;;;;;;;;5114023;28;20484;-61
2024/02/14 10:02:30;;;;;;;7.38;5.78;;;;;;;;;;5113968;28;20066;-61
2024/02/14 10:04:55;;;;;;;7.85;5.97;;;;;;;;;;5114412;28;20028;-61
2024/02/14 10:07:20;;;;;;;6.72;5.65;;;;;;;;;;5113921;28;20024;-61
2024/02/14 10:09:46;;;;;;;8.20;6.22;;;;;;;;;;5114411;28;20024;-61
2024/02/14 10:12:12;;;;;;;6.32;4.95;;;;;;;;;;5113882;28;20035;-61
2024/02/14 10:14:37;;;;;;;6.72;5.20;;;;;;;;;;5113998;28;20122;-61
2024/02/14 10:17:05;;;;;;;8.23;4.80;;;;;;;;;;5113803;28;20073;-61
2024/02/14 10:19:31;;;;;;;7.40;5.30;;;;;;;;;;5114045;28;20020;-61
2024/02/14 10:21:58;;;;;;;9.32;5.38;;;;;;;;;;5095510;28;20467;-61
2024/02/14 10:24:25;;;;;;;7.70;5.70;;;;;;;;;;5113763;28;20024;-61
2024/02/14 10:26:50;;;;;;;7.35;4.55;;;;;;;;;;5113718;28;20031;-61
2024/02/14 10:29:15;;;;;;;6.07;4.90;;;;;;;;;;5113943;28;20024;-61
2024/02/14 10:31:41;;;;;;;7.97;5.05;;;;;;;;;;5113975;28;20074;-61
2024/02/14 10:34:07;;;;;;;9.38;6.38;;;;;;;;;;5095364;28;20556;-61
2024/02/14 10:36:35;;;;;;;9.82;6.28;;;;;;;;;;5113648;28;20016;-61
2024/02/14 10:39:00;;;;;;;7.63;4.65;;;;;;;;;;5095891;28;20039;-61
2024/02/14 10:41:26;;;;;;;7.03;4.82;;;;;;;;;;5117709;28;20027;-61
2024/02/14 10:43:52;;;;;;;6.93;4.38;;;;;;;;;;5117322;28;20108;-61
2024/02/14 10:46:25;;;;;;;5.07;4.53;;;;;;;;;;5117594;28;20031;-61
2024/02/14 10:48:56;;;;;;;5.75;3.65;;;;;;;;;;5117253;28;20027;-61
2024/02/14 10:51:22;;;;;;;5.63;4.10;;;;;;;;;;5117478;28;20162;-61
2024/02/14 10:53:49;;;;;;;4.22;3.80;;;;;;;;;;5098898;28;20462;-62
2024/02/14 10:56:17;;;;;;;4.90;3.78;;;;;;;;;;5098800;28;20114;-61
2024/02/14 10:58:46;;;;;;;7.75;4.75;;;;;;;;;;5116849;28;20119;-61
2024/02/14 11:01:14;;;;;;;13.27;6.20;;;;;;;;;;5116925;28;20023;-61
2024/02/14 11:03:40;;;;;;;6.40;4.75;;;;;;;;;;5117281;28;20031;-61
2024/02/14 11:06:06;;;;;;;4.03;3.60;;;;;;;;;;5099296;28;20023;-61
2024/02/14 11:08:32;;;;;;;5.60;3.50;;;;;;;;;;5116929;28;20377;-61
2024/02/14 11:11:01;;;;;;;5.78;3.90;;;;;;;;;;5099000;28;20042;-61
2024/02/14 11:13:32;;;;;;;4.75;3.90;;;;;;;;;;5117348;28;20479;-61
2024/02/14 11:16:01;;;;;;;5.57;4.20;;;;;;;;;;5098501;28;20363;-61
2024/02/14 11:18:36;;;;;;;3.85;3.20;;;;;;;;;;5117254;28;20114;-61
2024/02/14 11:21:05;;;;;;;4.82;3.47;;;;;;;;;;5116967;28;20020;-61
2024/02/14 11:23:31;;;;;;;5.05;3.70;;;;;;;;;;5117203;28;20055;-61
2024/02/14 11:26:01;;;;;;;5.03;3.70;;;;;;;;;;5116880;28;20055;-61
2024/02/14 11:28:27;;;;;;;3.40;3.10;;;;;;;;;;5117124;28;20072;-61
2024/02/14 11:30:52;;;;;;;6.80;3.67;;;;;;;;;;5116511;28;20102;-61
2024/02/14 11:33:19;;;;;;;4.80;3.80;;;;;;;;;;5116429;28;20496;-61
2024/02/14 11:35:51;;;;;;;5.10;3.95;;;;;;;;;;5116603;28;20063;-61
2024/02/14 11:38:17;;;;;;;4.93;3.70;;;;;;;;;;5116600;28;20028;-61
2024/02/14 11:40:42;;;;;;;5.07;3.53;;;;;;;;;;5116602;28;20028;-61
2024/02/14 11:43:12;;;;;;;3.83;3.15;;;;;;;;;;5116529;28;20028;-61
2024/02/14 11:45:41;;;;;;;5.95;3.70;;;;;;;;;;5116804;28;20102;-61
2024/02/14 11:48:08;;;;;;;5.47;3.95;;;;;;;;;;5116151;28;20028;-61
2024/02/14 11:50:33;;;;;;;4.30;3.47;;;;;;;;;;5115986;28;20032;-61
2024/02/14 11:52:58;;;;;;;4.07;2.75;;;;;;;;;;5116345;28;20346;-62
2024/02/14 11:55:28;;;;;;;3.92;3.22;;;;;;;;;;5116227;28;20035;-61
2024/02/14 11:57:54;;;;;;;4.82;3.53;;;;;;;;;;5116036;28;20438;-61
2024/02/14 12:00:19;;;;;;;4.82;3.60;;;;;;;;;;5116508;28;20055;-61
2024/02/14 12:02:44;;;;;;;4.72;3.25;;;;;;;;;;5116168;28;20050;-61
2024/02/14 12:05:10;;;;;;;5.07;3.35;;;;;;;;;;5115850;28;20432;-62
2024/02/14 12:07:35;;;;;;;4.35;3.53;;;;;;;;;;5116042;28;20106;-62
2024/02/14 12:10:01;;;;;;;4.97;3.35;;;;;;;;;;5115723;28;20118;-62
2024/02/14 12:12:27;;;;;;;5.32;3.53;;;;;;;;;;5115928;28;20039;-61
2024/02/14 12:14:52;;;;;;;4.13;3.17;;;;;;;;;;5115843;28;20354;-61
2024/02/14 12:17:24;;;;;;;6.63;3.20;;;;;;;;;;5115596;28;20035;-61
2024/02/14 12:19:50;;;;;;;4.60;3.22;;;;;;;;;;5115799;28;20032;-61
2024/02/14 12:22:19;;;;;;;3.63;3.33;;;;;;;;;;5116041;28;20084;-62
2024/02/14 12:24:44;;;;;;;3.65;3.25;;;;;;;;;;5115377;28;20038;-61
2024/02/14 12:27:10;;;;;;;4.65;3.40;;;;;;;;;;5115380;28;20031;-61
2024/02/14 12:29:35;;;;;;;4.35;2.90;;;;;;;;;;5115599;28;20461;-61
2024/02/14 12:32:05;;;;;;;4.03;3.63;;;;;;;;;;5115234;28;20031;-62
2024/02/14 12:34:32;;;;;;;3.45;3.08;;;;;;;;;;5115139;28;20028;-64
2024/02/14 12:36:57;;;;;;;4.65;3.20;;;;;;;;;;5115094;28;20026;-64
2024/02/14 12:39:24;;;;;;;5.57;3.13;;;;;;;;;;5115172;28;20474;-63
2024/02/14 12:41:50;;;;;;;2.83;2.53;;;;;;;;;;5115393;28;20107;-64
2024/02/14 12:44:15;;;;;;;4.10;2.47;;;;;;;;;;5115390;28;20442;-63
2024/02/14 12:46:40;;;;;;;3.33;2.60;;;;;;;;;;5115527;28;20027;-64
2024/02/14 12:49:06;;;;;;;2.85;2.47;;;;;;;;;;5115504;28;20055;-64
2024/02/14 12:51:31;;;;;;;3.22;2.58;;;;;;;;;;5115222;28;20054;-64
2024/02/14 12:53:57;;;;;;;4.82;2.88;;;;;;;;;;5114753;28;20454;-64
2024/02/14 12:56:22;;;;;;;3.10;2.78;;;;;;;;;;5114828;28;20447;-64
2024/02/14 12:58:47;;;;;;;3.65;2.83;;;;;;;;;;5115226;28;20536;-63
2024/02/14 13:01:14;;;;;;;3.47;2.90;;;;;;;;;;5096801;28;20521;-63
2024/02/14 13:03:40;;;;;;;4.05;2.97;;;;;;;;;;5114044;28;20395;-63
2024/02/14 13:06:05;;;;;;;2.92;2.67;;;;;;;;;;5114796;28;20027;-64
2024/02/14 13:08:30;;;;;;;5.32;3.17;;;;;;;;;;5114642;28;20028;-64
2024/02/14 13:10:57;;;;;;;4.18;3.35;;;;;;;;;;5114507;28;20429;-64
2024/02/14 13:13:22;;;;;;;4.63;3.42;;;;;;;;;;5114269;28;20031;-64
2024/02/14 13:15:47;;;;;;;5.35;4.03;;;;;;;;;;5114359;28;20042;-61
2024/02/14 13:18:13;;;;;;;6.47;4.00;;;;;;;;;;5114694;28;20134;-61
2024/02/14 13:20:39;;;;;;;5.20;3.60;;;;;;;;;;5114392;28;20039;-61
2024/02/14 13:23:05;;;;;;;5.78;4.00;;;;;;;;;;5096150;28;20023;-60
2024/02/14 13:25:31;;;;;;;4.68;3.90;;;;;;;;;;5114705;28;20028;-60
2024/02/14 13:27:58;;;;;;;6.15;4.55;;;;;;;;;;5115083;28;20038;-60
2024/02/14 13:30:24;;;;;;;4.28;3.35;;;;;;;;;;5114484;28;20088;-61
2024/02/14 13:32:49;;;;;;;4.93;3.70;;;;;;;;;;5114821;28;20031;-60
2024/02/14 13:35:14;;;;;;;4.80;3.88;;;;;;;;;;5096242;28;20019;-60
2024/02/14 13:37:40;;;;;;;6.38;4.30;;;;;;;;;;5114263;28;20070;-60
2024/02/14 13:40:10;;;;;;;5.43;4.25;;;;;;;;;;5114299;28;20043;-60
2024/02/14 13:42:37;;;;;;;8.07;3.83;;;;;;;;;;5114361;28;20037;-60
2024/02/14 13:45:03;;;;;;;5.15;4.20;;;;;;;;;;5095912;28;20088;-60
2024/02/14 13:47:29;;;;;;;7.82;4.45;;;;;;;;;;5114472;28;20381;-63
2024/02/14 13:49:54;;;;;;;6.97;4.18;;;;;;;;;;5114182;28;20080;-62
2024/02/14 13:52:20;;;;;;;3.97;3.47;;;;;;;;;;5114358;28;20031;-61
2024/02/14 13:54:45;;;;;;;4.93;3.70;;;;;;;;;;5114708;28;20410;-61
2024/02/14 13:57:19;;;;;;;3.95;3.17;;;;;;;;;;5114085;28;20362;-56
2024/02/14 13:59:44;;;;;;;8.20;4.03;;;;;;;;;;5114359;28;20039;-56
2024/02/14 14:02:12;;;;;;;4.30;3.15;;;;;;;;;;5114244;28;20024;-56
2024/02/14 14:04:37;;;;;;;5.60;3.40;;;;;;;;;;5114259;28;20080;-56
2024/02/14 14:07:04;;;;;;;6.20;3.55;;;;;;;;;;5095752;28;20555;-58
2024/02/14 14:09:32;;;;;;;4.88;3.20;;;;;;;;;;5113801;28;20028;-58
2024/02/14 14:11:58;;;;;;;6.13;3.25;;;;;;;;;;5114265;28;20122;-56
2024/02/14 14:17:06;;;;;;;22.30;12.30;;;;;;;;;;5150642;22;20055;-56
2024/02/14 14:19:47;;;;;;;14.65;7.88;;;;;;;;;;5138495;22;20056;-60
2024/02/14 14:22:14;;;;;;;16.77;8.13;;;;;;;;;;5132013;22;20047;-57
2024/02/14 14:24:40;;;;;;;14.63;7.43;;;;;;;;;;5126797;22;20052;-56